Hoppa till innehåll

METAR väder och rapporter - ESGG

Nedan listas information från vald flygplats. Andra METARs finns längre ned på sidan. Kontakta oss om någon saknas eller skriv in egen ICAO-kod.

Andra intressanta METARs

Klicka på önskad rubrik nedan för att visa nuvarande väder för den platsen.

Avstånd från stationen: NO 27kmESGG - Göteborg (Landvetter)
Uppdaterad: 2021-04-21 05:20
 Vind från VSV
Vind: VSV 20 km/h
Temperatur: 5°C
Vindavkylning: 1°C
Daggpunkt: 4°C
Luftfuktighet: 93%
Barometer: 1008 hPa
Moln: Övervägande molnigt
Sikt: 7 km
Molninformation: Övervägande molnigt 213 m
2021/04/21 03:20 ESGG 210320Z 24011KT 7000 BKN007 05/04 Q1008
Övervägande molnigt
Övervägande molnigt
  Visa detaljer för Göteborg (Landvetter)
Avstånd från stationen: N 28kmESGP - Göteborg (Säve)
Uppdaterad: 2021-04-21 05:53
 
unable to load ESGP data RC=404 Not Found
unable to load ESGP data RC=404 Not Found
  Visa detaljer för Göteborg (Säve)
Avstånd från stationen: NO 419kmESSA - Stockholm (Arlanda)
Uppdaterad: 2021-04-19 19:20
Ej aktuell
 
2021/04/19 17:20

  Visa detaljer för Stockholm (Arlanda)
Avstånd från stationen: ONO 404kmESSB - Stockholm (Bromma)
Uppdaterad: 2021-04-21 04:50
 Vind från OSO
Vind: OSO 4 km/h
Temperatur: 0°C
Daggpunkt: -5°C
Luftfuktighet: 69%
Barometer: 1007 hPa
Moln: Klart
Sikt: 10 km
2021/04/21 02:50 ESSB 210250Z AUTO 12002KT 9999 NCD 00/M05 Q1007
Klart
Klart
  Visa detaljer för Stockholm (Bromma)
Avstånd från stationen: ONO 323kmESKN - Stockholm (Skavsta)
Uppdaterad: 2021-04-21 05:20
 Vind från varierande
Vind: varierande 4 km/h
Temperatur: 0°C
Daggpunkt: -5°C
Luftfuktighet: 69%
Barometer: 1007 hPa
Summering: Klart
Sikt: mer än 10 km
2021/04/21 03:20 ESKN 210320Z VRB02KT CAVOK 00/M05 Q1007
Klart
Klart
  Visa detaljer för Stockholm (Skavsta)
Avstånd från stationen: SSO 238kmESMS - Malmö flygplats (Sturup)
Uppdaterad: 2021-04-21 05:20
 Vind från VSV
Vind: VSV 11 km/h
Temperatur: 2°C
Vindavkylning: -1°C
Daggpunkt: 0°C
Luftfuktighet: 87%
Barometer: 1011 hPa
Summering: Klart
Sikt: mer än 10 km
2021/04/21 03:20 ESMS 210320Z 25006KT CAVOK 02/00 Q1011
Klart
Klart
  Visa detaljer för Malmö flygplats (Sturup)
Avstånd från stationen: O 382kmESSV - Visby flygplats
Uppdaterad: 2021-04-21 04:50
 Vind från SV
Vind: SV 6 km/h
Temperatur: -3°C
Daggpunkt: -4°C
Luftfuktighet: 93%
Barometer: 1009 hPa
Moln: Klart
Sikt: 10 km
2021/04/21 02:50 ESSV 210250Z AUTO 22003KT 9999 NCD M03/M04 Q1009
Klart
Klart
  Visa detaljer för Visby flygplats
Avstånd från stationen: NNO 92kmESGT - Trollhättan
Uppdaterad: 2021-04-21 02:20
Ej aktuell
 Vind från S
Vind: S 13 km/h
Temperatur: 3°C
Vindavkylning: -1°C
Daggpunkt: 0°C
Luftfuktighet: 81%
Barometer: 1009 hPa
Moln: Klart
Sikt: 10 km
2021/04/21 00:20 ESGT 210020Z AUTO 17007KT 9999 NCD 03/M00 Q1009
Klart
Klart
  Visa detaljer för Trollhättan
Avstånd från stationen: ONO 129kmESGJ - Jönköpings flygplats
Uppdaterad: 2021-04-21 05:20
 Vind från SV
Vind: SV 11 km/h
Temperatur: 4°C
Vindavkylning: 1°C
Daggpunkt: -1°C
Luftfuktighet: 70%
Barometer: 1007 hPa
Moln: Klart
Sikt: 10 km
2021/04/21 03:20 ESGJ 210320Z AUTO 23006KT 9999 NCD 04/M01 Q1007
Klart
Klart
  Visa detaljer för Jönköpings flygplats
Avstånd från stationen: NNO 229kmESOK - Karlstad
Uppdaterad: 2021-04-21 04:20
Ej aktuell
 Vind från S
Vind: S 13 km/h
Temperatur: 4°C
Vindavkylning: 1°C
Daggpunkt: 1°C
Luftfuktighet: 81%
Barometer: 1005 hPa
Moln: Klart
Sikt: 10 km
2021/04/21 02:20 ESOK 210220Z AUTO 19007KT 9999 NCD 04/01 Q1005
Klart
Klart
  Visa detaljer för Karlstad
Avstånd från stationen: N 643kmESNZ - Östersund (Frösön)
Uppdaterad: 2021-04-21 05:20
 Vind från V
Vind: V 20 km/h
Temperatur: 3°C
Vindavkylning: -2°C
Daggpunkt: 2°C
Luftfuktighet: 93%
Barometer: 1002 hPa
Summering: Lätt regn
Moln: Genommulet
Sikt: 10 km
Molninformation: Genommulet 701 m
2021/04/21 03:20 ESNZ 210320Z AUTO 28011KT 9999 -RA VV023 03/02 Q1002
Lätt regn, Genommulet
Lätt regn
Genommulet
  Visa detaljer för Östersund (Frösön)
Avstånd från stationen: SSO 216kmEKCH - Köpenhamn (Kastrup)
Uppdaterad: 2021-04-21 05:20
 Vind från VNV
Vind: VNV 13 km/h
Temperatur: 6°C
Vindavkylning: 3°C
Daggpunkt: 3°C
Luftfuktighet: 81%
Barometer: 1012 hPa
Moln: Klart
Sikt: 10 km
2021/04/21 03:20 EKCH 210320Z AUTO 29007KT 9999 NCD 06/03 Q1012 NOSIG
Klart
Klart
  Visa detaljer för Köpenhamn (Kastrup)
Avstånd från stationen: SV 263kmEKBI - Billund Airport
Uppdaterad: 2021-04-21 01:50
Ej aktuell
 Vind från V
Vind: V 9 km/h
Temperatur: 3°C
Vindavkylning: 0°C
Daggpunkt: 3°C
Luftfuktighet: 100%
Barometer: 1015 hPa
Summering: Patches of Fog
Moln: Klart
Sikt: 4 km
2021/04/20 23:50 EKBI 202350Z AUTO 27005KT 3800 BCFG NCD 03/03 Q1015
Sporadisk dimma, Klart
Sporadisk dimma
Klart
  Visa detaljer för Billund Airport
Avstånd från stationen: N 302kmENGM - Oslo (Gardermoen)
Uppdaterad: 2021-04-21 05:20
 Vind från varierande
Vind: varierande 4 km/h
Temperatur: 5°C
Daggpunkt: 3°C
Luftfuktighet: 87%
Barometer: 1003 hPa
Summering: Lätt regn
Moln: Övervägande molnigt
Sikt: 10 km
Molninformation: Delvis molnigt 1402 m
Övervägande molnigt 1859 m
2021/04/21 03:20 ENGM 210320Z VRB02KT 9999 -RA SCT046 BKN061 05/03 Q1003
Lätt regn, Övervägande molnigt
Lätt regn
Övervägande molnigt
  Visa detaljer för Oslo (Gardermoen)
Avstånd från stationen: NO 540kmEFMA - Mariehamn / Åland
Uppdaterad: 2021-04-21 05:20
 Vind från NNO
Vind: NNO 2 km/h
Temperatur: -3°C
Daggpunkt: -4°C
Luftfuktighet: 93%
Barometer: 1008 hPa
Summering: Klart
Sikt: mer än 10 km
2021/04/21 03:20 EFMA 210320Z AUTO 02001KT CAVOK M03/M04 Q1008
Klart
Klart
  Visa detaljer för Mariehamn / Åland
Avstånd från stationen: S 558kmEDDT - Berlin (Tegel), Germany
Uppdaterad: 2021-04-21 05:53
 
unable to load EDDT data RC=404 Not Found
unable to load EDDT data RC=404 Not Found
  Visa detaljer för Berlin (Tegel), Germany
Avstånd från stationen: SV 737kmEHAM - Amsterdam (Schiphol)
Uppdaterad: 2021-04-21 05:25
 Vind från NNV
Vind: NNV 4 km/h
Temperatur: 6°C
Daggpunkt: 4°C
Luftfuktighet: 87%
Barometer: 1017 hPa
Summering: Klart
Sikt: mer än 10 km
2021/04/21 03:25 EHAM 210325Z 34002KT CAVOK 06/04 Q1017 NOSIG
Klart
Klart
  Visa detaljer för Amsterdam (Schiphol)
Avstånd från stationen: ONO 808kmEFHK - Helsingfors (Vantaa)
Uppdaterad: 2021-04-21 05:20
 Vind från ONO
Vind: ONO 9 km/h
Temperatur: 1°C
Vindavkylning: -2°C
Daggpunkt: -3°C
Luftfuktighet: 75%
Barometer: 1009 hPa
Summering: Klart
Sikt: mer än 10 km
2021/04/21 03:20 EFHK 210320Z 06005KT CAVOK 01/M03 Q1009 NOSIG
Klart
Klart
  Visa detaljer för Helsingfors (Vantaa)
Avstånd från stationen: SSV 537kmEDDW - Bremen
Uppdaterad: 2021-04-21 05:20
 Vind från SV
Vind: SV 6 km/h
Temperatur: 2°C
Daggpunkt: 1°C
Luftfuktighet: 93%
Barometer: 1015 hPa
Summering: Klart
Sikt: mer än 10 km
2021/04/21 03:20 EDDW 210320Z 23003KT CAVOK 02/01 Q1015
Klart
Klart
  Visa detaljer för Bremen
Avstånd från stationen: SSV 861kmEDDF - Frankfurt am Main
Uppdaterad: 2021-04-21 05:20
 Vind från SSV
Vind: SSV 4 km/h
Temperatur: 3°C
Daggpunkt: 2°C
Luftfuktighet: 93%
Barometer: 1015 hPa
Summering: Klart
Sikt: mer än 10 km
2021/04/21 03:20 EDDF 210320Z 20002KT CAVOK 03/02 Q1015 NOSIG
Klart
Klart
  Visa detaljer för Frankfurt am Main
Avstånd från stationen: SV 880kmEBBR - Bryssel international
Uppdaterad: 2021-04-21 05:20
 Vind från NV
Vind: NV 2 km/h
Temperatur: 7°C
Daggpunkt: 5°C
Luftfuktighet: 87%
Barometer: 1016 hPa
Moln: Delvis molnigt
Sikt: 6 km
2021/04/21 03:20 EBBR 210320Z 31001KT 6000 NSC 07/05 Q1016 TEMPO 2500 BR
Delvis molnigt
Delvis molnigt
  Visa detaljer för Bryssel international
Avstånd från stationen: SV 738kmEHAM - Amsterdam (Schiphol)
Uppdaterad: 2021-04-21 05:25
 Vind från NNV
Vind: NNV 4 km/h
Temperatur: 6°C
Daggpunkt: 4°C
Luftfuktighet: 87%
Barometer: 1017 hPa
Summering: Klart
Sikt: mer än 10 km
2021/04/21 03:25 EHAM 210325Z 34002KT CAVOK 06/04 Q1017 NOSIG
Klart
Klart
  Visa detaljer för Amsterdam (Schiphol)
Avstånd från stationen: SV 1044kmEGLL - London (Heathrow)
Uppdaterad: 2021-04-21 05:20
 Vind från NNO
Vind: NNO 6 km/h
Temperatur: 8°C
Daggpunkt: 5°C
Luftfuktighet: 82%
Barometer: 1018 hPa
Moln: Klart
Sikt: 6 km
2021/04/21 03:20 EGLL 210320Z AUTO 02003KT 6000 NCD 08/05 Q1018 TEMPO 4000 BR
Klart
Klart
  Visa detaljer för London (Heathrow)
Avstånd från stationen: SV 1132kmLFPG - Paris (Charles de Gaulle)
Uppdaterad: 2021-04-21 05:00
 Vind från N
Vind: N 19 km/h
Temperatur: 8°C
Vindavkylning: 4°C
Daggpunkt: 3°C
Luftfuktighet: 71%
Barometer: 1016 hPa
Summering: Klart
Sikt: mer än 10 km
2021/04/21 03:00 LFPG 210300Z 01010KT CAVOK 08/03 Q1016 NOSIG
Klart
Klart
  Visa detaljer för Paris (Charles de Gaulle)
Avstånd från stationen: SSV 1142kmLSZH - Zürich Airport
Uppdaterad: 2021-04-21 04:50
 Vind från calm
Vind: Vindstilla
Temperatur: 1°C
Daggpunkt: 0°C
Luftfuktighet: 93%
Barometer: 1015 hPa
Summering: Klart
Sikt: mer än 10 km
2021/04/21 02:50 LSZH 210250Z AUTO 00000KT CAVOK 01/M00 Q1015 NOSIG
Klart
Klart
  Visa detaljer för Zürich Airport
Avstånd från stationen: S 1749kmLIRF - Rome Airport (Fiumicino - Leonardo da Vinci)
Uppdaterad: 2021-04-21 04:50
 Vind från ONO
Vind: ONO 4 km/h
Temperatur: 6°C
Daggpunkt: 5°C
Luftfuktighet: 93%
Barometer: 1018 hPa
Summering: Klart
Sikt: mer än 10 km
2021/04/21 02:50 LIRF 210250Z 07002KT CAVOK 06/05 Q1018 NOSIG
Klart
Klart
  Visa detaljer för Rome Airport (Fiumicino - Leonardo da Vinci)
Avstånd från stationen: SO 2679kmLTAI - Antalya
Uppdaterad: 2021-04-21 04:50
 Vind från N
Vind: N 9 km/h
Temperatur: 11°C
Daggpunkt: 9°C
Luftfuktighet: 88%
Barometer: 1014 hPa
Summering: Klart
Sikt: mer än 10 km
2021/04/21 02:50 LTAI 210250Z 35005KT CAVOK 11/09 Q1014 NOSIG RMK RWY18C 34004KT RWY36R 34004KT RWY18L 32001KT
Klart
Klart
  Visa detaljer för Antalya
Avstånd från stationen: VSV 6074kmKJFK - New Your (JFK)
Uppdaterad: 2021-04-21 04:51
 Vind från S
Vind: S 31 km/h
Temperatur: 12°C
Daggpunkt: 7°C
Luftfuktighet: 72%
Barometer: 1012.9 hPa
Moln: Några få moln
Sikt: 16 km
Molninformation: Några få moln 7620 m
2021/04/21 02:51 KJFK 210251Z 19017KT 10SM FEW250 12/07 A2991 RMK AO2 PK WND 18027/0203 SLP129 T01220067 50008
Några få moln
Några få moln
  Visa detaljer för New Your (JFK)
Avstånd från stationen: VSV 8848kmKLAX - Los Angeles International Airport
Uppdaterad: 2021-04-21 04:53
 Vind från VSV
Vind: VSV 13 km/h
Temperatur: 14°C
Daggpunkt: 11°C
Luftfuktighet: 82%
Barometer: 1011.5 hPa
Moln: Övervägande molnigt
Sikt: 16 km
Molninformation: Övervägande molnigt 640 m
2021/04/21 02:53 KLAX 210253Z 24007KT 10SM BKN021 14/11 A2987 RMK AO2 SLP115 T01440106 55001 $
Övervägande molnigt
Övervägande molnigt
  Visa detaljer för Los Angeles International Airport
Avstånd från stationen: SO 4968kmOMDB - Dubai International Airport
Uppdaterad: 2021-04-21 05:00
 Vind från SV
Vind: SV 4 km/h
Temperatur: 25°C
Daggpunkt: 19°C
Luftfuktighet: 69%
Barometer: 1010 hPa
Moln: Delvis molnigt
Sikt: 6 km
2021/04/21 03:00 OMDB 210300Z 23002KT 6000 NSC 25/19 Q1010 NOSIG
Delvis molnigt
Delvis molnigt
  Visa detaljer för Dubai International Airport
Avstånd från stationen: OSO 8570kmRJTT - Tokyo International Airport
Uppdaterad: 2021-04-21 05:00
 Vind från O
Vind: O 19 km/h
Temperatur: 20°C
Daggpunkt: 11°C
Luftfuktighet: 56%
Barometer: 1018 hPa
Moln: Några få moln
Sikt: 10 km
Molninformation: Några få moln 914 m
2021/04/21 03:00 RJTT 210300Z 09010KT 9999 FEW030 20/11 Q1018 NOSIG RMK 1CU030 A3009
Några få moln
Några få moln
  Visa detaljer för Tokyo International Airport
Avstånd från stationen: OSO 7125kmZBAA - Peking (Beijing Capital)
Uppdaterad: 2021-04-21 05:00
 Vind från SSO
Vind: SSO 7 km/h
Temperatur: 21°C
Daggpunkt: 9°C
Luftfuktighet: 46%
Barometer: 1018 hPa
Moln: Delvis molnigt
Sikt: 8 km
2021/04/21 03:00 ZBAA 210300Z 15002MPS 110V180 8000 NSC 21/09 Q1018 NOSIG
Delvis molnigt
Delvis molnigt
  Visa detaljer för Peking (Beijing Capital)
VÄDER KURIOSA -  Weather TermsSevere Thunderstorm Watch - Conditions are favorable for the development of severe thunderstorms in and close to the watch area. These watches are issued for large areas by the Storm Prediction Center in Norman, Oklahoma, and are usually valid for four to six hours.